createdAt,value
2017-07-30T00:00:46.992Z,0
2017-07-30T00:01:47.136Z,0
2017-07-30T00:02:46.984Z,0
2017-07-30T00:03:47.103Z,0
2017-07-30T00:04:46.974Z,0
2017-07-30T00:05:47.073Z,0
2017-07-30T00:06:47.064Z,0
2017-07-30T00:07:46.977Z,0
2017-07-30T00:08:47.057Z,0
2017-07-30T00:09:46.957Z,0
2017-07-30T00:10:46.960Z,0
2017-07-30T00:11:46.950Z,0
2017-07-30T00:12:46.947Z,0
2017-07-30T00:13:46.641Z,0
2017-07-30T00:14:46.940Z,0
2017-07-30T00:15:47.033Z,0
2017-07-30T00:16:46.627Z,0
2017-07-30T00:17:46.930Z,0
2017-07-30T00:18:47.030Z,0
2017-07-30T00:19:46.612Z,0
2017-07-30T00:20:46.912Z,0
2017-07-30T00:21:46.935Z,0
2017-07-30T00:22:46.911Z,0
2017-07-30T00:23:46.912Z,0
2017-07-30T00:24:46.602Z,0
2017-07-30T00:25:47.000Z,0
2017-07-30T00:26:46.894Z,0
2017-07-30T00:27:46.587Z,0
2017-07-30T00:28:46.582Z,0
2017-07-30T00:29:46.891Z,0
2017-07-30T00:30:46.880Z,0
2017-07-30T00:31:46.978Z,0
2017-07-30T00:32:46.874Z,0
2017-07-30T00:33:46.874Z,0
2017-07-30T00:34:46.870Z,0
2017-07-30T00:35:46.863Z,0
2017-07-30T00:36:46.855Z,0
2017-07-30T00:37:46.855Z,0
2017-07-30T00:38:47.003Z,0
2017-07-30T00:39:46.849Z,0
2017-07-30T00:40:46.952Z,0
2017-07-30T00:41:46.846Z,0
2017-07-30T00:42:46.935Z,0
2017-07-30T00:43:46.937Z,0
2017-07-30T00:44:46.935Z,0
2017-07-30T00:45:46.524Z,0
2017-07-30T00:46:46.828Z,0
2017-07-30T00:47:46.816Z,0
2017-07-30T00:48:46.912Z,0
2017-07-30T00:49:46.809Z,0
2017-07-30T00:50:46.813Z,0
2017-07-30T00:51:46.807Z,0
2017-07-30T00:52:46.804Z,0
2017-07-30T00:53:46.800Z,0
2017-07-30T00:54:46.898Z,0
2017-07-30T00:55:46.896Z,0
2017-07-30T00:56:46.785Z,0
2017-07-30T00:57:46.784Z,0
2017-07-30T00:58:46.784Z,0
2017-07-30T00:59:46.881Z,0
2017-07-30T01:00:46.873Z,0
2017-07-30T01:01:46.774Z,0
2017-07-30T01:02:46.468Z,0
2017-07-30T01:03:46.863Z,0
2017-07-30T01:04:46.454Z,0
2017-07-30T01:05:46.448Z,0
2017-07-30T01:06:46.757Z,0
2017-07-30T01:07:46.444Z,0
2017-07-30T01:08:46.449Z,0
2017-07-30T01:09:46.437Z,0
2017-07-30T01:10:46.629Z,0
2017-07-30T01:11:46.432Z,0
2017-07-30T01:12:46.732Z,0
2017-07-30T01:13:46.730Z,0
2017-07-30T01:14:46.415Z,0
2017-07-30T01:15:46.415Z,0
2017-07-30T01:16:46.719Z,0
2017-07-30T01:17:46.720Z,0
2017-07-30T01:18:46.508Z,0
2017-07-30T01:19:46.701Z,0
2017-07-30T01:20:46.707Z,0
2017-07-30T01:21:46.694Z,0
2017-07-30T01:22:46.695Z,0
2017-07-30T01:23:46.386Z,0
2017-07-30T01:24:46.388Z,0
2017-07-30T01:25:46.379Z,0
2017-07-30T01:26:46.386Z,0
2017-07-30T01:27:46.774Z,0
2017-07-30T01:28:46.472Z,0
2017-07-30T01:29:46.688Z,0
2017-07-30T01:30:46.360Z,0
2017-07-30T01:31:46.459Z,0
2017-07-30T01:32:46.353Z,0
2017-07-30T01:33:46.043Z,0
2017-07-30T01:34:46.349Z,0
2017-07-30T01:35:46.651Z,0
2017-07-30T01:36:46.349Z,0
2017-07-30T01:37:46.333Z,0
2017-07-30T01:38:46.330Z,0
2017-07-30T01:39:46.329Z,0
2017-07-30T01:40:46.825Z,0
2017-07-30T01:41:46.319Z,0
2017-07-30T01:42:46.318Z,0
2017-07-30T01:43:46.308Z,0
2017-07-30T01:44:46.310Z,0
2017-07-30T01:45:46.301Z,0
2017-07-30T01:46:46.609Z,0
2017-07-30T01:47:46.093Z,0
2017-07-30T01:48:46.299Z,0
2017-07-30T01:49:46.602Z,0
2017-07-30T01:50:46.384Z,0
2017-07-30T01:51:46.694Z,0
2017-07-30T01:52:46.581Z,0
2017-07-30T01:53:46.677Z,0
2017-07-30T01:54:46.581Z,0
2017-07-30T01:55:46.581Z,0
2017-07-30T01:56:46.365Z,0
2017-07-30T01:57:46.060Z,0
2017-07-30T01:58:46.564Z,0
2017-07-30T01:59:46.361Z,0
2017-07-30T02:00:46.256Z,0
2017-07-30T02:01:46.555Z,0
2017-07-30T02:02:46.655Z,0
2017-07-30T02:03:46.553Z,0
2017-07-30T02:04:46.237Z,0
2017-07-30T02:05:46.332Z,0
2017-07-30T02:06:46.531Z,0
2017-07-30T02:07:46.328Z,0
2017-07-30T02:08:46.631Z,0
2017-07-30T02:09:46.527Z,0
2017-07-30T02:10:46.215Z,0
2017-07-30T02:11:46.515Z,0
2017-07-30T02:12:46.512Z,0
2017-07-30T02:13:46.517Z,0
2017-07-30T02:14:46.607Z,0
2017-07-30T02:15:46.513Z,0
2017-07-30T02:16:46.194Z,0
2017-07-30T02:17:46.495Z,0
2017-07-30T02:18:46.485Z,0
2017-07-30T02:19:46.585Z,0
2017-07-30T02:20:46.509Z,0
2017-07-30T02:21:46.485Z,0
2017-07-30T02:22:46.479Z,0
2017-07-30T02:23:46.572Z,0
2017-07-30T02:24:46.471Z,0
2017-07-30T02:25:46.569Z,0
2017-07-30T02:26:46.562Z,0
2017-07-30T02:27:46.463Z,0
2017-07-30T02:28:46.657Z,0
2017-07-30T02:29:46.452Z,0
2017-07-30T02:30:46.448Z,0
2017-07-30T02:31:46.440Z,0
2017-07-30T02:32:46.444Z,0
2017-07-30T02:33:46.129Z,0
2017-07-30T02:34:46.536Z,0
2017-07-30T02:35:46.428Z,0
2017-07-30T02:36:46.429Z,0
2017-07-30T02:37:46.430Z,0
2017-07-30T02:38:46.429Z,0
2017-07-30T02:39:46.414Z,0
2017-07-30T02:40:46.411Z,0
2017-07-30T02:41:46.410Z,0
2017-07-30T02:42:46.407Z,0
2017-07-30T02:43:46.403Z,0
2017-07-30T02:44:46.392Z,0
2017-07-30T02:45:46.403Z,0
2017-07-30T02:46:46.536Z,0
2017-07-30T02:47:46.594Z,0
2017-07-30T02:48:46.488Z,0
2017-07-30T02:49:46.384Z,0
2017-07-30T02:50:46.375Z,0
2017-07-30T02:51:46.372Z,0
2017-07-30T02:52:46.160Z,0
2017-07-30T02:53:46.460Z,0
2017-07-30T02:54:46.353Z,0
2017-07-30T02:55:46.356Z,0
2017-07-30T02:56:46.455Z,0
2017-07-30T02:57:46.041Z,0
2017-07-30T02:58:46.350Z,0
2017-07-30T02:59:46.338Z,0
2017-07-30T03:00:46.029Z,0
2017-07-30T03:01:46.339Z,0
2017-07-30T03:02:46.326Z,0
2017-07-30T03:03:46.027Z,0
2017-07-30T03:04:45.708Z,0
2017-07-30T03:05:46.318Z,0
2017-07-30T03:06:46.327Z,0
2017-07-30T03:07:46.000Z,0
2017-07-30T03:08:46.003Z,0
2017-07-30T03:09:46.111Z,0
2017-07-30T03:10:46.298Z,0
2017-07-30T03:11:46.296Z,0
2017-07-30T03:12:46.293Z,0
2017-07-30T03:13:46.291Z,0
2017-07-30T03:14:46.286Z,0
2017-07-30T03:15:46.379Z,0
2017-07-30T03:16:46.285Z,0
2017-07-30T03:17:46.270Z,0
2017-07-30T03:18:46.267Z,0
2017-07-30T03:19:46.268Z,0
2017-07-30T03:20:46.257Z,0
2017-07-30T03:21:46.258Z,0
2017-07-30T03:22:46.353Z,0
2017-07-30T03:23:46.250Z,0
2017-07-30T03:24:46.256Z,0
2017-07-30T03:25:46.339Z,0
2017-07-30T03:26:46.336Z,4
2017-07-30T03:27:46.234Z,4
2017-07-30T03:28:46.229Z,0
2017-07-30T03:29:46.230Z,0
2017-07-30T03:30:45.930Z,4
2017-07-30T03:31:46.324Z,4
2017-07-30T03:32:46.214Z,4
2017-07-30T03:33:46.214Z,4
2017-07-30T03:34:46.209Z,4
2017-07-30T03:35:46.205Z,4
2017-07-30T03:36:45.895Z,8
2017-07-30T03:37:46.223Z,8
2017-07-30T03:38:45.893Z,8
2017-07-30T03:39:45.878Z,8
2017-07-30T03:40:46.192Z,12
2017-07-30T03:41:46.390Z,12
2017-07-30T03:42:46.278Z,16
2017-07-30T03:43:45.870Z,16
2017-07-30T03:44:45.868Z,20
2017-07-30T03:45:46.180Z,28
2017-07-30T03:46:45.954Z,28
2017-07-30T03:47:45.957Z,32
2017-07-30T03:48:46.254Z,36
2017-07-30T03:49:46.157Z,36
2017-07-30T03:50:45.854Z,36
2017-07-30T03:51:46.248Z,40
2017-07-30T03:52:46.142Z,44
2017-07-30T03:53:45.953Z,48
2017-07-30T03:54:46.134Z,52
2017-07-30T03:55:46.126Z,56
2017-07-30T03:56:46.225Z,56
2017-07-30T03:57:46.121Z,60
2017-07-30T03:58:46.218Z,64
2017-07-30T03:59:46.112Z,68
2017-07-30T04:00:46.110Z,72
2017-07-30T04:01:46.115Z,72
2017-07-30T04:02:46.097Z,80
2017-07-30T04:03:46.096Z,84
2017-07-30T04:04:46.204Z,96
2017-07-30T04:05:46.191Z,104
2017-07-30T04:06:46.088Z,116
2017-07-30T04:07:46.085Z,128
2017-07-30T04:08:46.083Z,140
2017-07-30T04:09:46.074Z,156
2017-07-30T04:10:46.172Z,176
2017-07-30T04:11:45.863Z,196
2017-07-30T04:12:45.771Z,216
2017-07-30T04:13:46.261Z,236
2017-07-30T04:14:46.159Z,260
2017-07-30T04:15:46.056Z,284
2017-07-30T04:16:45.747Z,304
2017-07-30T04:17:46.052Z,332
2017-07-30T04:18:46.044Z,356
2017-07-30T04:19:46.039Z,376
2017-07-30T04:20:46.182Z,392
2017-07-30T04:21:46.040Z,412
2017-07-30T04:22:46.129Z,424
2017-07-30T04:23:45.726Z,436
2017-07-30T04:24:45.714Z,448
2017-07-30T04:25:45.722Z,448
2017-07-30T04:26:45.707Z,440
2017-07-30T04:27:45.705Z,424
2017-07-30T04:28:46.005Z,416
2017-07-30T04:29:45.693Z,412
2017-07-30T04:30:45.696Z,396
2017-07-30T04:31:46.025Z,376
2017-07-30T04:32:45.987Z,348
2017-07-30T04:33:45.990Z,336
2017-07-30T04:34:45.778Z,332
2017-07-30T04:35:45.993Z,340
2017-07-30T04:36:45.974Z,356
2017-07-30T04:37:45.671Z,384
2017-07-30T04:38:45.964Z,420
2017-07-30T04:39:46.068Z,460
2017-07-30T04:40:45.649Z,508
2017-07-30T04:41:45.651Z,552
2017-07-30T04:42:46.053Z,592
2017-07-30T04:43:45.644Z,616
2017-07-30T04:44:46.084Z,612
2017-07-30T04:45:45.632Z,584
2017-07-30T04:46:45.941Z,552
2017-07-30T04:47:45.724Z,532
2017-07-30T04:48:45.929Z,516
2017-07-30T04:49:45.421Z,500
2017-07-30T04:50:45.918Z,476
2017-07-30T04:51:46.124Z,456
2017-07-30T04:52:45.612Z,448
2017-07-30T04:53:45.930Z,448
2017-07-30T04:54:45.700Z,456
2017-07-30T04:55:46.003Z,464
2017-07-30T04:56:45.591Z,468
2017-07-30T04:57:46.000Z,468
2017-07-30T04:58:45.589Z,468
2017-07-30T04:59:45.424Z,480
2017-07-30T05:00:45.886Z,504
2017-07-30T05:01:45.673Z,536
2017-07-30T05:02:45.881Z,580
2017-07-30T05:03:45.567Z,624
2017-07-30T05:04:45.558Z,668
2017-07-30T05:05:45.662Z,712
2017-07-30T05:06:45.867Z,752
2017-07-30T05:07:45.552Z,804
2017-07-30T05:08:46.061Z,864
2017-07-30T05:09:45.845Z,932
2017-07-30T05:10:45.949Z,1012
2017-07-30T05:11:45.534Z,1116
2017-07-30T05:12:45.535Z,1216
2017-07-30T05:13:45.986Z,1292
2017-07-30T05:14:46.034Z,1264
2017-07-30T05:15:45.976Z,1116
2017-07-30T05:16:45.520Z,1020
2017-07-30T05:17:45.204Z,976
2017-07-30T05:18:46.014Z,984
2017-07-30T05:19:45.199Z,1012
2017-07-30T05:20:45.812Z,1056
2017-07-30T05:21:45.501Z,1100
2017-07-30T05:22:45.496Z,1160
2017-07-30T05:23:45.497Z,1236
2017-07-30T05:24:45.202Z,1276
2017-07-30T05:25:45.593Z,1312
2017-07-30T05:26:45.491Z,1356
2017-07-30T05:27:45.784Z,1400
2017-07-30T05:28:45.777Z,1464
2017-07-30T05:29:45.471Z,1560
2017-07-30T05:30:45.565Z,1680
2017-07-30T05:31:45.969Z,1796
2017-07-30T05:32:44.843Z,1900
2017-07-30T05:33:45.608Z,2056
2017-07-30T05:34:45.463Z,2196
2017-07-30T05:35:45.650Z,2340
2017-07-30T05:36:45.752Z,2496
2017-07-30T05:37:45.438Z,2660
2017-07-30T05:38:45.440Z,2860
2017-07-30T05:39:45.741Z,3152
2017-07-30T05:40:45.428Z,4772
2017-07-30T05:41:45.526Z,3308
2017-07-30T05:42:45.426Z,3404
2017-07-30T05:43:45.525Z,3460
2017-07-30T05:44:45.725Z,3664
2017-07-30T05:45:45.447Z,3784
2017-07-30T05:46:45.407Z,4004
2017-07-30T05:47:45.405Z,4736
2017-07-30T05:48:45.811Z,11356
2017-07-30T05:49:45.698Z,13112
2017-07-30T05:50:45.400Z,13468
2017-07-30T05:51:45.494Z,11844
2017-07-30T05:52:45.700Z,13816
2017-07-30T05:53:45.390Z,14256
2017-07-30T05:54:45.692Z,12336
2017-07-30T05:55:45.680Z,6480
2017-07-30T05:56:45.781Z,4616
2017-07-30T05:57:45.675Z,4504
2017-07-30T05:58:45.673Z,4436
2017-07-30T05:59:45.367Z,4372
2017-07-30T06:00:45.665Z,4380
2017-07-30T06:01:45.665Z,4528
2017-07-30T06:02:45.170Z,4728
2017-07-30T06:03:45.356Z,4984
2017-07-30T06:04:45.602Z,5340
2017-07-30T06:05:45.676Z,5824
2017-07-30T06:06:45.646Z,6340
2017-07-30T06:07:45.755Z,6576
2017-07-30T06:08:45.341Z,20352
2017-07-30T06:09:45.489Z,23168
2017-07-30T06:10:45.332Z,11036
2017-07-30T06:11:45.333Z,12772
2017-07-30T06:12:45.429Z,17440
2017-07-30T06:13:45.635Z,13984
2017-07-30T06:14:45.321Z,8404
2017-07-30T06:15:45.353Z,8720
2017-07-30T06:16:45.728Z,8936
2017-07-30T06:17:45.317Z,26720
2017-07-30T06:18:45.317Z,26720
2017-07-30T06:19:45.313Z,25568
2017-07-30T06:20:45.615Z,24448
2017-07-30T06:21:45.314Z,23648
2017-07-30T06:22:45.609Z,10416
2017-07-30T06:23:45.617Z,7776
2017-07-30T06:24:45.302Z,6696
2017-07-30T06:25:45.609Z,21056
2017-07-30T06:26:45.322Z,21856
2017-07-30T06:27:45.604Z,21216
2017-07-30T06:28:45.404Z,9692
2017-07-30T06:29:45.394Z,20800
2017-07-30T06:30:45.600Z,16544
2017-07-30T06:31:45.598Z,13784
2017-07-30T06:32:45.702Z,27424
2017-07-30T06:33:45.396Z,26176
2017-07-30T06:34:45.291Z,17824
2017-07-30T06:35:45.489Z,25920
2017-07-30T06:36:45.593Z,13688
2017-07-30T06:37:45.283Z,7748
2017-07-30T06:38:45.391Z,28896
2017-07-30T06:39:45.292Z,26592
2017-07-30T06:40:45.694Z,23488
2017-07-30T06:41:45.285Z,21248
2017-07-30T06:42:45.688Z,29376
2017-07-30T06:43:45.384Z,31200
2017-07-30T06:44:45.587Z,30912
2017-07-30T06:45:45.284Z,29952
2017-07-30T06:46:45.694Z,30944
2017-07-30T06:47:45.586Z,33056
2017-07-30T06:48:45.693Z,32864
2017-07-30T06:49:45.589Z,32192
2017-07-30T06:50:45.288Z,6580
2017-07-30T06:51:45.590Z,4632
2017-07-30T06:52:45.591Z,4304
2017-07-30T06:53:45.290Z,5060
2017-07-30T06:54:45.287Z,12484
2017-07-30T06:55:45.289Z,34976
2017-07-30T06:56:45.690Z,33056
2017-07-30T06:57:45.591Z,30080
2017-07-30T06:58:45.294Z,30816
2017-07-30T06:59:45.694Z,31744
2017-07-30T07:00:45.597Z,30720
2017-07-30T07:01:45.302Z,31136
2017-07-30T07:02:45.406Z,32448
2017-07-30T07:03:45.702Z,32480
2017-07-30T07:04:45.293Z,31328
2017-07-30T07:05:45.288Z,29760
2017-07-30T07:06:45.289Z,28896
2017-07-30T07:07:45.393Z,30880
2017-07-30T07:08:45.297Z,31456
2017-07-30T07:09:45.599Z,30912
2017-07-30T07:10:45.290Z,31456
2017-07-30T07:11:45.593Z,31744
2017-07-30T07:12:45.297Z,30592
2017-07-30T07:13:45.286Z,31360
2017-07-30T07:14:45.597Z,32416
2017-07-30T07:15:45.394Z,32064
2017-07-30T07:16:45.296Z,32160
2017-07-30T07:17:45.599Z,31264
2017-07-30T07:18:45.296Z,31968
2017-07-30T07:19:45.591Z,30912
2017-07-30T07:20:45.495Z,30656
2017-07-30T07:21:45.292Z,32192
2017-07-30T07:22:45.392Z,32256
2017-07-30T07:23:45.400Z,28768
2017-07-30T07:24:45.293Z,30112
2017-07-30T07:25:45.598Z,29504
2017-07-30T07:26:45.296Z,26144
2017-07-30T07:27:45.300Z,26464
2017-07-30T07:28:45.395Z,26496
2017-07-30T07:29:44.987Z,26848
2017-07-30T07:30:44.990Z,25504
2017-07-30T07:31:45.294Z,26240
2017-07-30T07:32:45.594Z,20960
2017-07-30T07:33:45.602Z,13292
2017-07-30T07:34:45.701Z,9212
2017-07-30T07:35:45.392Z,8716
2017-07-30T07:36:45.135Z,8528
2017-07-30T07:37:45.293Z,8388
2017-07-30T07:38:45.092Z,8260
2017-07-30T07:39:45.390Z,8100
2017-07-30T07:40:45.290Z,7988
2017-07-30T07:41:45.596Z,7888
2017-07-30T07:42:45.593Z,7736
2017-07-30T07:43:45.592Z,7584
2017-07-30T07:44:45.084Z,7452
2017-07-30T07:45:45.181Z,7296
2017-07-30T07:46:45.085Z,7144
2017-07-30T07:47:45.285Z,7024
2017-07-30T07:48:45.588Z,6868
2017-07-30T07:49:45.609Z,6724
2017-07-30T07:50:45.689Z,6556
2017-07-30T07:51:45.593Z,6408
2017-07-30T07:52:45.589Z,6264
2017-07-30T07:53:45.291Z,6124
2017-07-30T07:54:45.288Z,6012
2017-07-30T07:55:45.591Z,5856
2017-07-30T07:56:44.976Z,5736
2017-07-30T07:57:45.277Z,5616
2017-07-30T07:58:45.289Z,5504
2017-07-30T07:59:45.283Z,5392
2017-07-30T08:00:45.587Z,5260
2017-07-30T08:01:45.734Z,5140
2017-07-30T08:02:45.583Z,5028
2017-07-30T08:03:45.581Z,4920
2017-07-30T08:04:45.783Z,4804
2017-07-30T08:05:45.286Z,4684
2017-07-30T08:06:45.780Z,4576
2017-07-30T08:07:45.587Z,4472
2017-07-30T08:08:45.838Z,4380
2017-07-30T08:09:45.267Z,4284
2017-07-30T08:10:45.679Z,4180
2017-07-30T08:11:45.770Z,4100
2017-07-30T08:12:45.676Z,4008
2017-07-30T08:13:45.572Z,3948
2017-07-30T08:14:45.291Z,3876
2017-07-30T08:15:45.569Z,3784
2017-07-30T08:16:45.667Z,3716
2017-07-30T08:17:45.568Z,3640
2017-07-30T08:18:45.260Z,3564
2017-07-30T08:19:45.472Z,3472
2017-07-30T08:20:45.561Z,3392
2017-07-30T08:21:45.359Z,3312
2017-07-30T08:22:45.561Z,3232
2017-07-30T08:23:45.560Z,3156
2017-07-30T08:24:45.257Z,3084
2017-07-30T08:25:45.354Z,3020
2017-07-30T08:26:45.349Z,2956
2017-07-30T08:27:45.552Z,2888
2017-07-30T08:28:45.657Z,2824
2017-07-30T08:29:45.549Z,2760
2017-07-30T08:30:45.365Z,2708
2017-07-30T08:31:45.548Z,2644
2017-07-30T08:32:45.440Z,2596
2017-07-30T08:33:45.645Z,2536
2017-07-30T08:34:45.549Z,2468
2017-07-30T08:35:45.542Z,2392
2017-07-30T08:36:45.638Z,2296
2017-07-30T08:37:45.255Z,2172
2017-07-30T08:38:45.333Z,2068
2017-07-30T08:39:45.535Z,2048
2017-07-30T08:40:45.633Z,2032
2017-07-30T08:41:45.223Z,2012
2017-07-30T08:42:45.629Z,1996
2017-07-30T08:43:45.529Z,1980
2017-07-30T08:44:45.621Z,1960
2017-07-30T08:45:45.318Z,1960
2017-07-30T08:46:45.527Z,1952
2017-07-30T08:47:45.523Z,1956
2017-07-30T08:48:45.670Z,1968
2017-07-30T08:49:45.510Z,1996
2017-07-30T08:50:45.613Z,2032
2017-07-30T08:51:45.507Z,2060
2017-07-30T08:52:45.513Z,2092
2017-07-30T08:53:45.504Z,2132
2017-07-30T08:54:45.504Z,2172
2017-07-30T08:55:45.605Z,2216
2017-07-30T08:56:45.505Z,2216
2017-07-30T08:57:45.604Z,2112
2017-07-30T08:58:45.399Z,2084
2017-07-30T08:59:45.295Z,2180
2017-07-30T09:00:45.497Z,2196
2017-07-30T09:01:45.288Z,2272
2017-07-30T09:02:45.183Z,2336
2017-07-30T09:03:45.594Z,2356
2017-07-30T09:04:45.582Z,2352
2017-07-30T09:05:45.182Z,2352
2017-07-30T09:06:45.481Z,2376
2017-07-30T09:07:45.274Z,2412
2017-07-30T09:08:45.482Z,2428
2017-07-30T09:09:45.473Z,2392
2017-07-30T09:10:45.476Z,2400
2017-07-30T09:11:45.474Z,2364
2017-07-30T09:12:45.467Z,2460
2017-07-30T09:13:45.461Z,2472
2017-07-30T09:14:45.312Z,2464
2017-07-30T09:15:45.462Z,2452
2017-07-30T09:16:45.463Z,2428
2017-07-30T09:17:45.153Z,2396
2017-07-30T09:18:45.458Z,2396
2017-07-30T09:19:45.452Z,2368
2017-07-30T09:20:45.459Z,2324
2017-07-30T09:21:45.453Z,2284
2017-07-30T09:22:45.453Z,2244
2017-07-30T09:23:45.448Z,2212
2017-07-30T09:24:45.540Z,2180
2017-07-30T09:25:45.442Z,2144
2017-07-30T09:26:45.541Z,2108
2017-07-30T09:27:45.538Z,2104
2017-07-30T09:28:45.433Z,2076
2017-07-30T09:29:45.432Z,2032
2017-07-30T09:30:45.428Z,2012
2017-07-30T09:31:45.427Z,1988
2017-07-30T09:32:45.423Z,1964
2017-07-30T09:33:45.425Z,1960
2017-07-30T09:34:45.216Z,1944
2017-07-30T09:35:45.630Z,1920
2017-07-30T09:36:45.232Z,1912
2017-07-30T09:37:45.415Z,1900
2017-07-30T09:38:45.409Z,1880
2017-07-30T09:39:45.408Z,1868
2017-07-30T09:40:45.413Z,1844
2017-07-30T09:41:45.510Z,1828
2017-07-30T09:42:45.413Z,1808
2017-07-30T09:43:45.405Z,1792
2017-07-30T09:44:45.406Z,1780
2017-07-30T09:45:45.503Z,1768
2017-07-30T09:46:45.189Z,1736
2017-07-30T09:47:44.785Z,1736
2017-07-30T09:48:45.390Z,1720
2017-07-30T09:49:45.390Z,1708
2017-07-30T09:50:45.283Z,1696
2017-07-30T09:51:45.492Z,1688
2017-07-30T09:52:45.386Z,1668
2017-07-30T09:53:45.081Z,1676
2017-07-30T09:54:45.510Z,1668
2017-07-30T09:55:45.271Z,1668
2017-07-30T09:56:45.226Z,1664
2017-07-30T09:57:45.068Z,1664
2017-07-30T09:58:45.407Z,1652
2017-07-30T09:59:44.758Z,1648
2017-07-30T10:00:45.664Z,1652
2017-07-30T10:01:45.057Z,1656
2017-07-30T10:02:45.153Z,1648
2017-07-30T10:03:45.050Z,1648
2017-07-30T10:04:44.743Z,1640
2017-07-30T10:05:45.453Z,1636
2017-07-30T10:06:45.354Z,1624
2017-07-30T10:07:45.141Z,1620
2017-07-30T10:08:45.344Z,1628
2017-07-30T10:09:44.739Z,1628
2017-07-30T10:10:45.036Z,1628
2017-07-30T10:11:45.136Z,1636
2017-07-30T10:12:45.030Z,1640
2017-07-30T10:13:45.330Z,1636
2017-07-30T10:14:45.335Z,1640
2017-07-30T10:15:45.352Z,1636
2017-07-30T10:16:44.715Z,1632
2017-07-30T10:17:45.122Z,1632
2017-07-30T10:18:45.432Z,1628
2017-07-30T10:19:45.323Z,1628
2017-07-30T10:20:45.322Z,1628
2017-07-30T10:21:45.314Z,1632
2017-07-30T10:22:45.418Z,1628
2017-07-30T10:23:45.326Z,1628
2017-07-30T10:24:45.309Z,1624
2017-07-30T10:25:45.016Z,1620
2017-07-30T10:26:45.309Z,1624
2017-07-30T10:27:45.504Z,1616
2017-07-30T10:28:45.309Z,1612
2017-07-30T10:29:45.305Z,1616
2017-07-30T10:30:45.094Z,1608
2017-07-30T10:31:45.295Z,1608
2017-07-30T10:32:44.792Z,1600
2017-07-30T10:33:45.390Z,1596
2017-07-30T10:34:45.295Z,1588
2017-07-30T10:35:45.285Z,1584
2017-07-30T10:36:44.978Z,1580
2017-07-30T10:37:45.282Z,1576
2017-07-30T10:38:45.378Z,1576
2017-07-30T10:39:45.009Z,1572
2017-07-30T10:40:44.970Z,1568
2017-07-30T10:41:45.280Z,1568
2017-07-30T10:42:44.968Z,1548
2017-07-30T10:43:45.498Z,1552
2017-07-30T10:44:45.267Z,1544
2017-07-30T10:45:45.367Z,1536
2017-07-30T10:46:44.958Z,1540
2017-07-30T10:47:45.361Z,1536
2017-07-30T10:48:45.259Z,1532
2017-07-30T10:49:45.254Z,1524
2017-07-30T10:50:45.361Z,1524
2017-07-30T10:51:45.250Z,1520
2017-07-30T10:52:45.249Z,1512
2017-07-30T10:53:45.249Z,1500
2017-07-30T10:54:45.257Z,1504
2017-07-30T10:55:44.937Z,1500
2017-07-30T10:56:44.630Z,1480
2017-07-30T10:57:45.241Z,1480
2017-07-30T10:58:44.928Z,1468
2017-07-30T10:59:45.026Z,1464
2017-07-30T11:00:45.331Z,1472
2017-07-30T11:01:45.229Z,1464
2017-07-30T11:02:44.930Z,1456
2017-07-30T11:03:45.220Z,1448
2017-07-30T11:04:44.920Z,1448
2017-07-30T11:05:45.226Z,1440
2017-07-30T11:06:45.466Z,1436
2017-07-30T11:07:45.211Z,1428
2017-07-30T11:08:45.220Z,1420
2017-07-30T11:09:45.410Z,1416
2017-07-30T11:10:45.210Z,1408
2017-07-30T11:11:45.407Z,1408
2017-07-30T11:12:45.208Z,1404
2017-07-30T11:13:45.198Z,1396
2017-07-30T11:14:45.305Z,1384
2017-07-30T11:15:45.211Z,1384
2017-07-30T11:16:44.895Z,1384
2017-07-30T11:17:45.200Z,1380
2017-07-30T11:18:44.883Z,1372
2017-07-30T11:19:45.345Z,1376
2017-07-30T11:20:45.189Z,1372
2017-07-30T11:21:45.185Z,1364
2017-07-30T11:22:45.282Z,1372
2017-07-30T11:23:44.878Z,1364
2017-07-30T11:24:45.176Z,1364
2017-07-30T11:25:45.186Z,1360
2017-07-30T11:26:45.189Z,1352
2017-07-30T11:27:44.867Z,1356
2017-07-30T11:28:44.862Z,1348
2017-07-30T11:29:45.162Z,1356
2017-07-30T11:30:44.860Z,1356
2017-07-30T11:31:44.858Z,1360
2017-07-30T11:32:44.860Z,1360
2017-07-30T11:33:45.355Z,1356
2017-07-30T11:34:44.857Z,1356
2017-07-30T11:35:45.255Z,1364
2017-07-30T11:36:44.945Z,1368
2017-07-30T11:37:44.845Z,1372
2017-07-30T11:38:44.939Z,1372
2017-07-30T11:39:45.042Z,1364
2017-07-30T11:40:44.840Z,1356
2017-07-30T11:41:45.139Z,1356
2017-07-30T11:42:44.629Z,1356
2017-07-30T11:43:44.837Z,1352
2017-07-30T11:44:45.281Z,1344
2017-07-30T11:45:45.231Z,1344
2017-07-30T11:46:44.824Z,1316
2017-07-30T11:47:45.127Z,1280
2017-07-30T11:48:45.130Z,1320
2017-07-30T11:49:45.220Z,1356
2017-07-30T11:50:44.922Z,1384
2017-07-30T11:51:45.234Z,1392
2017-07-30T11:52:45.116Z,1396
2017-07-30T11:53:44.817Z,1396
2017-07-30T11:54:44.812Z,1396
2017-07-30T11:55:44.808Z,1384
2017-07-30T11:56:45.208Z,1372
2017-07-30T11:57:45.103Z,1364
2017-07-30T11:58:44.800Z,1356
2017-07-30T11:59:44.794Z,1360
2017-07-30T12:00:44.793Z,1364
2017-07-30T12:01:45.206Z,1372
2017-07-30T12:02:44.788Z,1372
2017-07-30T12:03:44.789Z,1384
2017-07-30T12:04:44.791Z,1404
2017-07-30T12:05:44.782Z,1416
2017-07-30T12:06:45.034Z,1412
2017-07-30T12:07:44.787Z,1416
2017-07-30T12:08:44.776Z,1408
2017-07-30T12:09:44.472Z,1412
2017-07-30T12:10:44.467Z,1408
2017-07-30T12:11:44.920Z,1376
2017-07-30T12:12:44.771Z,1372
2017-07-30T12:13:44.889Z,1432
2017-07-30T12:14:45.068Z,1452
2017-07-30T12:15:44.454Z,1476
2017-07-30T12:16:44.759Z,1488
2017-07-30T12:17:44.858Z,1420
2017-07-30T12:18:44.757Z,1440
2017-07-30T12:19:44.753Z,1276
2017-07-30T12:20:44.853Z,1280
2017-07-30T12:21:44.443Z,1340
2017-07-30T12:22:44.747Z,1496
2017-07-30T12:23:44.748Z,1752
2017-07-30T12:24:44.745Z,2060
2017-07-30T12:25:44.840Z,2364
2017-07-30T12:26:44.739Z,2716
2017-07-30T12:27:44.839Z,3032
2017-07-30T12:28:44.835Z,3328
2017-07-30T12:29:44.530Z,3444
2017-07-30T12:30:44.836Z,3444
2017-07-30T12:31:45.036Z,3328
2017-07-30T12:32:44.728Z,3224
2017-07-30T12:33:44.824Z,3292
2017-07-30T12:34:44.825Z,3160
2017-07-30T12:35:44.717Z,3232
2017-07-30T12:36:44.723Z,3160
2017-07-30T12:37:44.813Z,3168
2017-07-30T12:38:45.268Z,3220
2017-07-30T12:39:44.822Z,3088
2017-07-30T12:40:45.013Z,3084
2017-07-30T12:41:44.715Z,2856
2017-07-30T12:42:44.398Z,2656
2017-07-30T12:43:45.110Z,2496
2017-07-30T12:44:44.819Z,2348
2017-07-30T12:45:45.005Z,2220
2017-07-30T12:46:45.005Z,2188
2017-07-30T12:47:45.004Z,1980
2017-07-30T12:48:45.105Z,1992
2017-07-30T12:49:44.695Z,2060
2017-07-30T12:50:45.097Z,2016
2017-07-30T12:51:44.999Z,1980
2017-07-30T12:52:44.784Z,1876
2017-07-30T12:53:44.684Z,1748
2017-07-30T12:54:44.991Z,1536
2017-07-30T12:55:44.983Z,1420
2017-07-30T12:56:44.987Z,1380
2017-07-30T12:57:44.676Z,1324
2017-07-30T12:58:44.981Z,1276
2017-07-30T12:59:44.977Z,1276
2017-07-30T13:00:44.482Z,1276
2017-07-30T13:01:44.772Z,1356
2017-07-30T13:02:44.976Z,1432
2017-07-30T13:03:44.461Z,1448
2017-07-30T13:04:44.458Z,1452
2017-07-30T13:05:44.667Z,1492
2017-07-30T13:06:44.368Z,1540
2017-07-30T13:07:44.663Z,1452
2017-07-30T13:08:44.770Z,1400
2017-07-30T13:09:44.658Z,1468
2017-07-30T13:10:45.059Z,1460
2017-07-30T13:11:44.655Z,1372
2017-07-30T13:12:44.654Z,1308
2017-07-30T13:13:44.960Z,1300
2017-07-30T13:14:44.440Z,1380
2017-07-30T13:15:44.641Z,1448
2017-07-30T13:16:44.845Z,1560
2017-07-30T13:17:44.639Z,1644
2017-07-30T13:18:44.640Z,1664
2017-07-30T13:19:45.039Z,1748
2017-07-30T13:20:44.633Z,1844
2017-07-30T13:21:44.836Z,1872
2017-07-30T13:22:44.935Z,1780
2017-07-30T13:23:44.630Z,1712
2017-07-30T13:24:44.728Z,1684
2017-07-30T13:25:44.316Z,1680
2017-07-30T13:26:45.036Z,1728
2017-07-30T13:27:44.414Z,1752
2017-07-30T13:28:44.618Z,1708
2017-07-30T13:29:45.021Z,1620
2017-07-30T13:30:44.617Z,1532
2017-07-30T13:31:44.713Z,1456
2017-07-30T13:32:44.719Z,1404
2017-07-30T13:33:44.911Z,1320
2017-07-30T13:34:44.603Z,1220
2017-07-30T13:35:44.753Z,1108
2017-07-30T13:36:44.092Z,1096
2017-07-30T13:37:44.296Z,1080
2017-07-30T13:38:44.596Z,1092
2017-07-30T13:39:44.598Z,1140
2017-07-30T13:40:44.900Z,1188
2017-07-30T13:41:44.791Z,1292